Home > Products > Valid Products > TAF

000
FTUS41 KALY 082324
TAFGFL
TAF
KGFL 082324Z 0900/0924 05005KT 1 1/2SM -SN SCT008 OVC030
      TEMPO 0902/0906 3SM -SN OVC008
     FM090600 VRB03KT P6SM VCSH SCT008 OVC015
     FM091200 00000KT P6SM SCT015 BKN030=



000
FTUS41 KALY 082324
TAFPOU
TAF
KPOU 082324Z 0900/0924 03005KT 4SM -SN SCT015 OVC035
      TEMPO 0900/0903 2SM -SN BKN008 OVC015
     FM090300 03005KT P6SM VCSH SCT008 OVC020
     FM092300 VRB03KT P6SM VCSH OVC030=



000
FTUS41 KALY 082324
TAFALB
TAF
KALB 082324Z 0900/0924 02005KT 1 1/2SM -SN SCT008 BKN015 OVC030
      TEMPO 0902/0906 3SM -SN OVC008
     FM090600 VRB03KT P6SM VCSH SCT008 OVC020
     FM091200 14004KT P6SM BKN040=



000
FTUS41 KALY 082248 AAB
TAFGFL
TAF AMD
KGFL 082248Z 0823/0918 05008KT P6SM VCSH SCT030 OVC060
     FM082315 06008KT 3SM -SN SCT015 OVC020
     FM090000 04005KT 2SM -SN BKN008 OVC015
     FM090400 VRB03KT P6SM VCSH SCT025 BKN080
     FM091200 VRB03KT P6SM OVC025=



000
FTUS41 KALY 082148 AAA
TAFGFL
TAF AMD
KGFL 082148Z 0822/0918 05008KT P6SM VCSH SCT030 OVC080
     FM082230 04007KT 3SM -SN SCT015 OVC020
     FM090000 04005KT 2SM -SN BKN008 OVC015
     FM090400 VRB03KT P6SM VCSH SCT025 BKN080
     FM091200 VRB03KT P6SM OVC025=



000
FTUS41 KALY 082146 AAA
TAFALB
TAF AMD
KALB 082146Z 0822/0918 05005KT P6SM VCSH SCT030 OVC060
     FM082215 02005KT 3SM -SN SCT015 OVC030
     FM082300 02005KT 1 1/2SM -SN OVC008
     FM090400 VRB03KT P6SM VCSH SCT025 BKN080
     FM091200 VRB03KT P6SM OVC025=



000
FTUS41 KALY 082146 AAA
TAFALB
TAF AMD
KALB 082146Z 0822/0918 05005KT P6SM VCSH SCT030 OVC060
     FM082215 02005KT 3SM -SN SCT015 OVC030
     FM082300 02005KT 1 1/2SM -SN OVC008
     FM090400 VRB03KT P6SM VCSH SCT025 BKN080
     FM091200 VRB03KT P6SM OVC025=



000
FTUS41 KALY 082113 AAA
TAFPOU
TAF AMD
KPOU 082113Z 0821/0918 01010KT 5SM -SN FEW008 SCT015 OVC030
      TEMPO 0822/0824 2SM -SN BKN008 OVC015
     FM090100 VRB03KT P6SM VCSH SCT008 BKN015 OVC030
     FM091200 VRB03KT P6SM VCSH OVC025=



000
FTUS41 KALY 081733
TAFALB
TAF
KALB 081733Z 0818/0918 05008KT P6SM BKN100
     FM082100 03007KT P6SM VCSH SCT025 BKN050 OVC080
      TEMPO 0821/0901 3SM -SN BKN025
     FM090100 VRB03KT P6SM VCSH SCT025 BKN080
     FM091200 VRB03KT P6SM OVC025=



000
FTUS41 KALY 081733
TAFGFL
TAF
KGFL 081733Z 0818/0918 05008KT P6SM BKN100
     FM082100 04007KT P6SM VCSH SCT025 BKN050 OVC080
      TEMPO 0821/0824 3SM -SN BKN025
     FM090000 VRB03KT P6SM VCSH SCT025 BKN080
     FM091200 VRB03KT P6SM OVC025=



000
FTUS41 KALY 081733
TAFPOU
TAF
KPOU 081733Z 0818/0918 06008KT P6SM VCSH BKN040 BKN100
     FM090100 VRB03KT P6SM VCSH SCT025 BKN080
     FM091200 VRB03KT P6SM VCSH OVC025=



000
FTUS41 KALY 081520 AAA
TAFPOU
TAF AMD
KPOU 081520Z 0815/0912 05007KT P6SM VCSH SCT025 BKN100
      TEMPO 0815/0818 6SM -SN BKN025
     FM081800 02008KT 1SM -SN OVC015
     FM090100 03005KT 3SM -SN OVC015
     FM090600 VRB03KT 6SM -SN OVC025=



000
FTUS41 KALY 081137
TAFALB
TAF
KALB 081137Z 0812/0912 02005KT P6SM SCT035 OVC130
      TEMPO 0812/0815 BKN035 OVC100
     FM081500 03008KT P6SM OVC035
     FM081900 04009KT 6SM -SN OVC050
     FM082200 02007KT 3SM -SN BKN025 OVC035
     FM090000 VRB03KT 1 1/2SM -SN OVC015
     FM090600 VRB03KT 4SM -SN OVC025
     FM090900 VRB03KT 6SM -SN OVC025=



000
FTUS41 KALY 081137
TAFPOU
TAF
KPOU 081137Z 0812/0912 02010KT P6SM OVC025
      TEMPO 0812/0815 SCT025 OVC050
     FM081500 05007KT 4SM -SN OVC025
     FM081800 02008KT 1SM -SN OVC015
     FM090100 03005KT 3SM -SN OVC015
     FM090600 VRB03KT 6SM -SN OVC025=



000
FTUS41 KALY 081137
TAFGFL
TAF
KGFL 081137Z 0812/0912 05006KT P6SM SCT035 BKN130
     FM081500 03008KT P6SM SCT050 OVC100
     FM081900 05009KT 6SM -SN OVC050
     FM082200 04007KT 3SM -SN BKN025 OVC035
     FM090000 VRB03KT 1 1/2SM -SN OVC015
     FM090900 VRB03KT 4SM -SN OVC025=



000
FTUS41 KALY 081137
TAFGFL
TAF
KGFL 081137Z 0812/0912 05006KT P6SM SCT035 BKN130
     FM081500 03008KT P6SM SCT050 OVC100
     FM081900 05009KT 6SM -SN OVC050
     FM082200 04007KT 3SM -SN BKN025 OVC035
     FM090000 VRB03KT 1 1/2SM -SN OVC015
     FM090900 VRB03KT 4SM -SN OVC025=



000
FTUS41 KALY 081137
TAFPOU
TAF
KPOU 081137Z 0812/0912 02010KT P6SM OVC025
      TEMPO 0812/0815 SCT025 OVC050
     FM081500 05007KT 4SM -SN OVC025
     FM081800 02008KT 1SM -SN OVC015
     FM090100 03005KT 3SM -SN OVC015
     FM090600 VRB03KT 6SM -SN OVC025=



000
FTUS41 KALY 081137
TAFALB
TAF
KALB 081137Z 0812/0912 02005KT P6SM SCT035 OVC130
      TEMPO 0812/0815 BKN035 OVC100
     FM081500 03008KT P6SM OVC035
     FM081900 04009KT 6SM -SN OVC050
     FM082200 02007KT 3SM -SN BKN025 OVC035
     FM090000 VRB03KT 1 1/2SM -SN OVC015
     FM090600 VRB03KT 4SM -SN OVC025
     FM090900 VRB03KT 6SM -SN OVC025=



000
FTUS41 KALY 081042 AAA
TAFALB
TAF AMD
KALB 081042Z 0811/0906 02005KT P6SM SCT035 OVC250
      TEMPO 0811/0815 BKN035 OVC100
     FM081500 03008KT P6SM OVC035
     FM081900 04009KT 6SM -SN OVC050
     FM082200 02007KT 3SM -SN BKN025 OVC035
     FM090000 VRB03KT 1 1/2SM -SN OVC015=



000
FTUS41 KALY 081042 AAA
TAFPOU
TAF AMD
KPOU 081042Z 0811/0906 35005KT P6SM OVC030
     FM081300 03007KT 6SM -SN OVC025
     FM081600 04007KT 3SM -SN OVC015
     FM090200 02003KT P6SM OVC025=



000
FTUS41 KALY 081042 AAA
TAFPOU
TAF AMD
KPOU 081042Z 0811/0906 35005KT P6SM OVC030
     FM081300 03007KT 6SM -SN OVC025
     FM081600 04007KT 3SM -SN OVC015
     FM090200 02003KT P6SM OVC025=



000
FTUS41 KALY 081042 AAA
TAFALB
TAF AMD
KALB 081042Z 0811/0906 02005KT P6SM SCT035 OVC250
      TEMPO 0811/0815 BKN035 OVC100
     FM081500 03008KT P6SM OVC035
     FM081900 04009KT 6SM -SN OVC050
     FM082200 02007KT 3SM -SN BKN025 OVC035
     FM090000 VRB03KT 1 1/2SM -SN OVC015=



000
FTUS41 KALY 080542
TAFALB
TAF
KALB 080542Z 0806/0906 35004KT P6SM BKN250
     FM080900 01004KT P6SM SCT100 OVC250
     FM081500 03008KT P6SM SCT050 OVC100
     FM081900 04009KT 6SM -SN OVC050
     FM082200 02007KT 3SM -SN BKN025 OVC035
     FM090000 VRB03KT 1 1/2SM -SN OVC015=



000
FTUS41 KALY 080542
TAFPOU
TAF
KPOU 080542Z 0806/0906 00000KT P6SM OVC250
     FM080800 03005KT P6SM SCT100 OVC250
     FM081200 03007KT P6SM BKN050 OVC100
     FM081600 03007KT 6SM -SN BKN025 OVC050
     FM081800 04007KT 3SM -SN OVC015
     FM090200 02003KT P6SM OVC025=



000
FTUS41 KALY 080542
TAFGFL
TAF
KGFL 080542Z 0806/0906 06004KT P6SM BKN250
     FM080900 01004KT P6SM SCT100 OVC250
     FM081500 03008KT P6SM SCT050 OVC100
     FM081900 05009KT 6SM -SN OVC050
     FM082200 04007KT 3SM -SN BKN025 OVC035
     FM090000 VRB03KT 1 1/2SM -SN OVC015=



000
FTUS41 KALY 080542
TAFALB
TAF
KALB 080542Z 0806/0906 35004KT P6SM BKN250
     FM080900 01004KT P6SM SCT100 OVC250
     FM081500 03008KT P6SM SCT050 OVC100
     FM081900 04009KT 6SM -SN OVC050
     FM082200 02007KT 3SM -SN BKN025 OVC035
     FM090000 VRB03KT 1 1/2SM -SN OVC015=



000
FTUS41 KALY 080542
TAFGFL
TAF
KGFL 080542Z 0806/0906 06004KT P6SM BKN250
     FM080900 01004KT P6SM SCT100 OVC250
     FM081500 03008KT P6SM SCT050 OVC100
     FM081900 05009KT 6SM -SN OVC050
     FM082200 04007KT 3SM -SN BKN025 OVC035
     FM090000 VRB03KT 1 1/2SM -SN OVC015=



000
FTUS41 KALY 080542
TAFPOU
TAF
KPOU 080542Z 0806/0906 00000KT P6SM OVC250
     FM080800 03005KT P6SM SCT100 OVC250
     FM081200 03007KT P6SM BKN050 OVC100
     FM081600 03007KT 6SM -SN BKN025 OVC050
     FM081800 04007KT 3SM -SN OVC015
     FM090200 02003KT P6SM OVC025=



000
FTUS41 KALY 072343
TAFGFL
TAF
KGFL 072343Z 0800/0824 VRB03KT P6SM SCT200
     FM080600 36004KT P6SM BKN200
     FM081200 02006KT P6SM BKN100 OVC150
     FM081700 03006KT P6SM BKN060 OVC100
     FM082100 05008KT P6SM VCSH SCT030 OVC050=



000
FTUS41 KALY 072343
TAFPOU
TAF
KPOU 072343Z 0800/0824 VRB04KT P6SM SCT200
     FM080600 VRB03KT P6SM BKN150 OVC250
     FM081200 04007KT P6SM BKN050 OVC100
     FM081500 02007KT P6SM VCSH SCT025 OVC040
     FM081900 03008KT 4SM -SN BR OVC025=



000
FTUS41 KALY 072343
TAFALB
TAF
KALB 072343Z 0800/0824 36005KT P6SM BKN250
     FM080500 35004KT P6SM SCT100 BKN200
     FM080900 01004KT P6SM SCT050 OVC150
     FM081500 03008KT P6SM OVC100
     FM081900 04009KT P6SM VCSH OVC050
     FM082200 02007KT 5SM -SN OVC035=



000
FTUS41 KALY 071724
TAFPOU
TAF
KPOU 071724Z 0718/0818 VRB03KT P6SM SCT200
     FM080600 02006KT P6SM SCT030 OVC070
     FM081200 05008KT P6SM SCT025 OVC050
     FM081600 02009KT P6SM VCSH OVC040=



000
FTUS41 KALY 071724
TAFGFL
TAF
KGFL 071724Z 0718/0818 15004KT P6SM SKC
     FM072300 VRB02KT P6SM SCT200
     FM081200 05006KT P6SM BKN100
     FM081500 03006KT P6SM OVC100=



000
FTUS41 KALY 071724
TAFALB
TAF
KALB 071724Z 0718/0818 VRB04KT P6SM SKC
     FM072300 VRB03KT P6SM SCT200
     FM080900 05005KT P6SM SCT100 OVC200
     FM081500 03009KT P6SM OVC100=



000
FTUS41 KALY 071120
TAFGFL
TAF
KGFL 071120Z 0712/0812 00000KT P6SM SKC
     FM071500 15004KT P6SM SKC
     FM072300 VRB02KT P6SM SCT200=



000
FTUS41 KALY 071120
TAFPOU
TAF
KPOU 071120Z 0712/0812 VRB03KT P6SM SCT200
     FM080800 02006KT P6SM SCT025 OVC050=



000
FTUS41 KALY 071120
TAFALB
TAF
KALB 071120Z 0712/0812 VRB04KT P6SM SKC
     FM072300 VRB03KT P6SM SCT200=



000
FTUS41 KALY 070539
TAFPOU
TAF
KPOU 070539Z 0706/0806 00000KT P6SM SKC
     FM071500 VRB03KT P6SM SCT200=



000
FTUS41 KALY 070539
TAFALB
TAF
KALB 070539Z 0706/0806 19005KT P6SM BKN070
     FM071400 18006KT P6SM SCT070
     FM072300 VRB03KT P6SM SCT200=



000
FTUS41 KALY 070539
TAFGFL
TAF
KGFL 070539Z 0706/0806 20005KT P6SM BKN070
     FM071500 15004KT P6SM SCT070
     FM072300 VRB02KT P6SM SCT200=



000
FTUS41 KALY 070539
TAFALB
TAF
KALB 070539Z 0706/0806 19005KT P6SM BKN070
     FM071400 18006KT P6SM SCT070
     FM072300 VRB03KT P6SM SCT200=



000
FTUS41 KALY 070539
TAFPOU
TAF
KPOU 070539Z 0706/0806 00000KT P6SM SKC
     FM071500 VRB03KT P6SM SCT200=



000
FTUS41 KALY 070539
TAFGFL
TAF
KGFL 070539Z 0706/0806 20005KT P6SM BKN070
     FM071500 15004KT P6SM SCT070
     FM072300 VRB02KT P6SM SCT200=



000
FTUS41 KALY 062345
TAFALB
TAF
KALB 062345Z 0700/0724 17005KT P6SM BKN070
     FM070200 19004KT P6SM SCT070
     FM070600 VRB03KT P6SM SKC
     FM071200 17004KT P6SM SKC
     FM071800 18006KT P6SM SCT200=



000
FTUS41 KALY 062345
TAFPOU
TAF
KPOU 062345Z 0700/0724 20004KT P6SM BKN200
     FM070400 22004KT P6SM FEW200
     FM070900 00000KT P6SM SKC
     FM071400 VRB03KT P6SM FEW200=



000
FTUS41 KALY 062345
TAFGFL
TAF
KGFL 062345Z 0700/0724 22005KT P6SM SCT060
     FM070300 VRB03KT P6SM FEW060
     FM070600 00000KT P6SM SKC
     FM071200 VRB04KT P6SM FEW200
     FM071800 15006KT P6SM SCT200=



000
FTUS41 KALY 062345
TAFALB
TAF
KALB 062345Z 0700/0724 17005KT P6SM BKN070
     FM070200 19004KT P6SM SCT070
     FM070600 VRB03KT P6SM SKC
     FM071200 17004KT P6SM SKC
     FM071800 18006KT P6SM SCT200=



000
FTUS41 KALY 062345
TAFPOU
TAF
KPOU 062345Z 0700/0724 20004KT P6SM BKN200
     FM070400 22004KT P6SM FEW200
     FM070900 00000KT P6SM SKC
     FM071400 VRB03KT P6SM FEW200=



000
FTUS41 KALY 062345
TAFGFL
TAF
KGFL 062345Z 0700/0724 22005KT P6SM SCT060
     FM070300 VRB03KT P6SM FEW060
     FM070600 00000KT P6SM SKC
     FM071200 VRB04KT P6SM FEW200
     FM071800 15006KT P6SM SCT200=



000
FTUS41 KALY 062211 AAA
TAFPOU
TAF AMD
KPOU 062211Z 0622/0718 18008G15KT P6SM BKN150
     FM062300 VRB03KT P6SM SCT100 SCT200
     FM070900 24006KT P6SM FEW100=



000
FTUS41 KALY 062210 AAB
TAFALB
TAF AMD
KALB 062210Z 0622/0718 17005KT P6SM BKN060
     FM070200 19004KT P6SM SCT060=



000
FTUS41 KALY 062122 AAB
TAFGFL
TAF AMD
KGFL 062122Z 0621/0718 19010KT P6SM OVC060
     FM062300 21005KT P6SM SCT060 SCT200
     FM070300 VRB03KT P6SM SCT100
     FM071200 26006KT P6SM FEW200=



000
FTUS41 KALY 061808 AAA
TAFGFL
TAF AMD
KGFL 061808Z 0618/0718 19012G19KT P6SM FEW050 BKN060 OVC080
     FM062200 21005KT P6SM SCT100 SCT200
     FM070300 VRB03KT P6SM SCT100
     FM071200 26006KT P6SM FEW200=



000
FTUS41 KALY 061808 AAA
TAFGFL
TAF AMD
KGFL 061808Z 0618/0718 19012G19KT P6SM FEW050 BKN060 OVC080
     FM062200 21005KT P6SM SCT100 SCT200
     FM070300 VRB03KT P6SM SCT100
     FM071200 26006KT P6SM FEW200=



000
FTUS41 KALY 061722 AAA
TAFALB
TAF AMD
KALB 061722Z 0617/0718 17012KT P6SM FEW050 SCT090 BKN270
     FM062300 19005KT P6SM SCT100=



000
FTUS41 KALY 061721
TAFGFL
TAF
KGFL 061721Z 0618/0718 19009KT P6SM BKN050 BKN100
     FM062200 21005KT P6SM SCT100 SCT200
     FM070300 VRB03KT P6SM SCT100
     FM071200 26006KT P6SM FEW200=



000
FTUS41 KALY 061721
TAFALB
TAF
KALB 061721Z 0618/0718 20010G16KT P6SM SCT050 BKN100
     FM062300 19005KT P6SM SCT100
     FM071200 25006KT P6SM FEW100=



000
FTUS41 KALY 061721
TAFPOU
TAF
KPOU 061721Z 0618/0718 23007KT P6SM SCT050 BKN100
     FM062300 VRB02KT P6SM SCT100 SCT200
     FM070900 24006KT P6SM FEW100=



000
FTUS41 KALY 061721
TAFPOU
TAF
KPOU 061721Z 0618/0718 23007KT P6SM SCT050 BKN100
     FM062300 VRB02KT P6SM SCT100 SCT200
     FM070900 24006KT P6SM FEW100=



000
FTUS41 KALY 061721
TAFALB
TAF
KALB 061721Z 0618/0718 20010G16KT P6SM SCT050 BKN100
     FM062300 19005KT P6SM SCT100
     FM071200 25006KT P6SM FEW100=



000
FTUS41 KALY 061721
TAFGFL
TAF
KGFL 061721Z 0618/0718 19009KT P6SM BKN050 BKN100
     FM062200 21005KT P6SM SCT100 SCT200
     FM070300 VRB03KT P6SM SCT100
     FM071200 26006KT P6SM FEW200=



000
FTUS41 KALY 061711 AAC
TAFALB
TAF AMD
KALB 061711Z 0617/0712 17012KT P6SM FEW050 SCT090 BKN270
     FM062300 19005KT P6SM SCT100=



000
FTUS41 KALY 061711 AAC
TAFALB
TAF AMD
KALB 061711Z 0617/0712 17012KT P6SM FEW050 SCT090 BKN270
     FM062300 19005KT P6SM SCT100=



000
FTUS41 KALY 061558 AAB
TAFALB
TAF AMD
KALB 061558Z 0616/0712 18008G16KT P6SM SCT070 BKN270
     FM061700 20010G16KT P6SM SCT050 BKN100
     FM062300 19005KT P6SM SCT100=



000
FTUS41 KALY 061557 AAA
TAFALB
TAF AMD
KALB 061557Z 0616/0712 18006KT P6SM SCT050
     FM061700 20010G16KT P6SM SCT050 BKN100
     FM062300 19005KT P6SM SCT100=



000
FTUS41 KALY 061124
TAFGFL
TAF
KGFL 061124Z 0612/0712 18005KT P6SM SCT025 SCT050
      TEMPO 0612/0613 BKN025
     FM061500 19009KT P6SM BKN050 BKN100
     FM062300 21003KT P6SM SCT100=



000
FTUS41 KALY 061124
TAFALB
TAF
KALB 061124Z 0612/0712 17006KT P6SM SCT250
     FM061400 18006KT P6SM SCT050
     FM061700 20010G16KT P6SM SCT050 BKN100
     FM062300 19005KT P6SM SCT100=



000
FTUS41 KALY 061124
TAFPOU
TAF
KPOU 061124Z 0612/0712 VRB02KT P6SM SKC
     FM061500 22004KT P6SM FEW050
     FM061800 23007KT P6SM SCT050 BKN100
     FM062300 VRB02KT P6SM SCT100=



000
FTUS41 KALY 061124
TAFPOU
TAF
KPOU 061124Z 0612/0712 VRB02KT P6SM SKC
     FM061500 22004KT P6SM FEW050
     FM061800 23007KT P6SM SCT050 BKN100
     FM062300 VRB02KT P6SM SCT100=



000
FTUS41 KALY 061124
TAFGFL
TAF
KGFL 061124Z 0612/0712 18005KT P6SM SCT025 SCT050
      TEMPO 0612/0613 BKN025
     FM061500 19009KT P6SM BKN050 BKN100
     FM062300 21003KT P6SM SCT100=



000
FTUS41 KALY 061124
TAFALB
TAF
KALB 061124Z 0612/0712 17006KT P6SM SCT250
     FM061400 18006KT P6SM SCT050
     FM061700 20010G16KT P6SM SCT050 BKN100
     FM062300 19005KT P6SM SCT100=



000
FTUS41 KALY 061038 AAA
TAFGFL
TAF AMD
KGFL 061038Z 0611/0706 00000KT P6SM SCT025
      TEMPO 0611/0613 BKN025
     FM061400 21008KT P6SM BKN050 BKN100
     FM062300 21003KT P6SM SCT050 BKN100=



000
FTUS41 KALY 061038 AAA
TAFGFL
TAF AMD
KGFL 061038Z 0611/0706 00000KT P6SM SCT025
      TEMPO 0611/0613 BKN025
     FM061400 21008KT P6SM BKN050 BKN100
     FM062300 21003KT P6SM SCT050 BKN100=



000
FTUS41 KALY 060532
TAFGFL
TAF
KGFL 060532Z 0606/0706 00000KT P6SM SCT050
     FM061400 21008KT P6SM BKN050 BKN100
     FM062300 21003KT P6SM SCT050 BKN100=



000
FTUS41 KALY 060532
TAFPOU
TAF
KPOU 060532Z 0606/0706 VRB02KT P6SM SKC
     FM061400 22004KT P6SM FEW050
     FM061700 23007KT P6SM SCT050 SCT100
     FM062300 VRB02KT P6SM SCT100=



000
FTUS41 KALY 060532
TAFALB
TAF
KALB 060532Z 0606/0706 VRB02KT P6SM SCT050
     FM061400 18006KT P6SM SCT050
     FM061700 20010G16KT P6SM SCT050 BKN100
     FM062300 19006KT P6SM SCT050 BKN100=



000
FTUS41 KALY 060532
TAFGFL
TAF
KGFL 060532Z 0606/0706 00000KT P6SM SCT050
     FM061400 21008KT P6SM BKN050 BKN100
     FM062300 21003KT P6SM SCT050 BKN100=



000
FTUS41 KALY 060532
TAFPOU
TAF
KPOU 060532Z 0606/0706 VRB02KT P6SM SKC
     FM061400 22004KT P6SM FEW050
     FM061700 23007KT P6SM SCT050 SCT100
     FM062300 VRB02KT P6SM SCT100=



000
FTUS41 KALY 060532
TAFALB
TAF
KALB 060532Z 0606/0706 VRB02KT P6SM SCT050
     FM061400 18006KT P6SM SCT050
     FM061700 20010G16KT P6SM SCT050 BKN100
     FM062300 19006KT P6SM SCT050 BKN100=



    US Dept of Commerce
    National Oceanic and Atmospheric Administration
    National Weather Service
    1325 East West Highway
    Silver Spring, MD 20910
    Page Author: NWS Internet Services Team
Disclaimer
Information Quality
Credits
Glossary
Privacy Policy
Freedom of Information Act (FOIA)
About Us
Career Opportunities